createdAt,value
2023-04-01T00:01:50.546Z,8.80
2023-04-01T00:04:17.900Z,8.80
2023-04-01T00:06:45.031Z,8.80
2023-04-01T00:09:12.067Z,8.80
2023-04-01T00:11:39.741Z,8.70
2023-04-01T00:14:08.350Z,8.70
2023-04-01T00:16:35.618Z,8.80
2023-04-01T00:19:02.706Z,8.80
2023-04-01T00:21:29.868Z,8.80
2023-04-01T00:23:57.070Z,8.80
2023-04-01T00:26:24.212Z,8.90
2023-04-01T00:28:52.272Z,8.90
2023-04-01T00:31:19.708Z,8.90
2023-04-01T00:33:46.928Z,8.90
2023-04-01T00:36:18.695Z,8.90
2023-04-01T00:38:47.045Z,8.90
2023-04-01T00:41:16.940Z,8.90
2023-04-01T00:43:46.948Z,8.90
2023-04-01T00:46:14.954Z,8.80
2023-04-01T00:48:49.544Z,8.80
2023-04-01T00:51:24.898Z,8.80
2023-04-01T00:53:55.500Z,8.80
2023-04-01T00:57:01.895Z,8.80
2023-04-01T00:59:35.775Z,8.80
2023-04-01T01:02:08.297Z,8.80
2023-04-01T01:04:37.007Z,8.80
2023-04-01T01:07:19.007Z,8.90
2023-04-01T01:09:58.208Z,8.80
2023-04-01T01:12:30.034Z,8.80
2023-04-01T01:15:13.590Z,8.80
2023-04-01T01:18:14.898Z,8.80
2023-04-01T01:21:12.890Z,8.70
2023-04-01T01:23:42.746Z,8.70
2023-04-01T01:26:32.324Z,8.60
2023-04-01T01:29:36.332Z,8.60
2023-04-01T01:32:27.270Z,8.60
2023-04-01T01:35:15.796Z,8.60
2023-04-01T01:37:45.774Z,8.70
2023-04-01T01:40:14.451Z,8.70
2023-04-01T01:42:47.012Z,8.70
2023-04-01T01:45:18.924Z,8.80
2023-04-01T01:47:47.744Z,8.80
2023-04-01T01:50:16.141Z,8.80
2023-04-01T01:52:43.238Z,8.80
2023-04-01T01:55:28.542Z,8.80
2023-04-01T01:57:59.182Z,8.80
2023-04-01T02:00:27.481Z,8.80
2023-04-01T02:02:56.208Z,8.90
2023-04-01T02:05:26.671Z,8.90
2023-04-01T02:08:12.830Z,8.80
2023-04-01T02:10:43.850Z,8.90
2023-04-01T02:13:51.492Z,8.80
2023-04-01T02:16:33.586Z,8.80
2023-04-01T02:19:02.855Z,8.70
2023-04-01T02:21:33.519Z,8.60
2023-04-01T02:24:04.249Z,8.60
2023-04-01T02:26:32.041Z,8.60
2023-04-01T02:29:02.687Z,8.60
2023-04-01T02:31:30.134Z,8.50
2023-04-01T02:33:58.462Z,8.50
2023-04-01T02:36:25.886Z,8.50
2023-04-01T02:38:55.817Z,8.50
2023-04-01T02:41:22.807Z,8.40
2023-04-01T02:43:50.429Z,8.40
2023-04-01T02:46:17.541Z,8.30
2023-04-01T02:48:44.638Z,8.30
2023-04-01T02:51:11.965Z,8.20
2023-04-01T02:53:39.012Z,8.20
2023-04-01T02:56:06.254Z,8.10
2023-04-01T02:58:33.284Z,8.10
2023-04-01T03:01:00.493Z,8.10
2023-04-01T03:03:27.618Z,8.00
2023-04-01T03:05:57.318Z,8.00
2023-04-01T03:08:24.375Z,8.00
2023-04-01T03:10:51.809Z,7.90
2023-04-01T03:13:18.802Z,7.90
2023-04-01T03:15:45.848Z,7.90
2023-04-01T03:18:12.997Z,7.90
2023-04-01T03:20:40.054Z,7.80
2023-04-01T03:23:07.117Z,7.80
2023-04-01T03:25:34.879Z,7.80
2023-04-01T03:28:02.312Z,7.80
2023-04-01T03:30:31.493Z,7.80
2023-04-01T03:33:00.599Z,7.80
2023-04-01T03:35:28.219Z,7.80
2023-04-01T03:37:55.977Z,7.80
2023-04-01T03:40:23.773Z,7.80
2023-04-01T03:42:51.590Z,7.70
2023-04-01T03:45:18.722Z,7.70
2023-04-01T03:47:45.925Z,7.70
2023-04-01T03:50:13.050Z,7.70
2023-04-01T03:52:40.408Z,7.80
2023-04-01T03:55:07.921Z,7.70
2023-04-01T03:57:35.017Z,7.70
2023-04-01T04:00:02.225Z,7.70
2023-04-01T04:02:29.364Z,7.70
2023-04-01T04:04:56.525Z,7.70
2023-04-01T04:07:23.629Z,7.70
2023-04-01T04:09:50.700Z,7.70
2023-04-01T04:12:17.730Z,7.70
2023-04-01T04:14:44.820Z,7.60
2023-04-01T04:17:17.324Z,7.70
2023-04-01T04:19:44.475Z,7.60
2023-04-01T04:22:11.553Z,7.60
2023-04-01T04:24:39.080Z,7.70
2023-04-01T04:27:06.295Z,7.60
2023-04-01T04:29:33.394Z,7.70
2023-04-01T04:32:00.461Z,7.70
2023-04-01T04:34:28.507Z,7.70
2023-04-01T04:36:56.062Z,7.70
2023-04-01T04:39:23.108Z,7.80
2023-04-01T04:41:50.172Z,7.80
2023-04-01T04:44:17.534Z,7.80
2023-04-01T04:46:44.805Z,7.80
2023-04-01T04:49:11.943Z,7.80
2023-04-01T04:51:39.458Z,7.80
2023-04-01T04:54:09.347Z,7.80
2023-04-01T04:56:39.471Z,7.90
2023-04-01T04:59:08.276Z,7.80
2023-04-01T05:01:35.620Z,7.90
2023-04-01T05:04:02.795Z,7.90
2023-04-01T05:06:30.675Z,7.90
2023-04-01T05:08:58.421Z,7.90
2023-04-01T05:11:27.378Z,7.90
2023-04-01T05:13:54.655Z,7.90
2023-04-01T05:16:24.594Z,7.90
2023-04-01T05:18:51.665Z,7.80
2023-04-01T05:21:18.782Z,7.80
2023-04-01T05:23:46.021Z,7.90
2023-04-01T05:26:15.603Z,7.80
2023-04-01T05:28:42.945Z,7.80
2023-04-01T05:31:10.876Z,7.80
2023-04-01T05:33:38.151Z,7.70
2023-04-01T05:36:13.452Z,7.70
2023-04-01T05:38:41.345Z,7.80
2023-04-01T05:41:08.497Z,7.70
2023-04-01T05:43:39.157Z,7.70
2023-04-01T05:46:06.621Z,7.70
2023-04-01T05:48:37.039Z,7.70
2023-04-01T05:51:06.423Z,7.70
2023-04-01T05:53:33.978Z,7.70
2023-04-01T05:56:06.116Z,7.70
2023-04-01T05:58:33.483Z,7.70
2023-04-01T06:01:15.935Z,7.70
2023-04-01T06:03:43.869Z,7.70
2023-04-01T06:06:34.875Z,7.70
2023-04-01T06:09:19.641Z,7.70
2023-04-01T06:12:09.742Z,7.70
2023-04-01T06:14:57.214Z,7.70
2023-04-01T06:17:39.793Z,7.70
2023-04-01T06:20:07.177Z,7.70
2023-04-01T06:23:00.125Z,7.70
2023-04-01T06:25:40.523Z,7.70
2023-04-01T06:28:44.887Z,7.60
2023-04-01T06:31:42.458Z,7.60
2023-04-01T06:34:27.285Z,7.70
2023-04-01T06:37:08.323Z,7.70
2023-04-01T06:39:49.611Z,7.70
2023-04-01T06:42:19.499Z,7.70
2023-04-01T06:44:56.572Z,7.70
2023-04-01T06:47:51.490Z,7.70
2023-04-01T06:50:27.520Z,7.80
2023-04-01T06:53:21.352Z,7.80
2023-04-01T06:56:27.704Z,7.80
2023-04-01T06:59:06.436Z,7.90
2023-04-01T07:01:44.978Z,7.90
2023-04-01T07:04:49.818Z,7.90
2023-04-01T07:07:41.520Z,7.90
2023-04-01T07:10:38.198Z,8.00
2023-04-01T07:13:16.757Z,8.00
2023-04-01T07:15:47.319Z,8.10
2023-04-01T07:18:29.321Z,8.10
2023-04-01T07:20:57.886Z,8.10
2023-04-01T07:23:33.378Z,8.10
2023-04-01T07:26:07.944Z,8.10
2023-04-01T07:28:37.984Z,8.20
2023-04-01T07:31:23.567Z,8.20
2023-04-01T07:33:53.561Z,8.20
2023-04-01T07:36:40.635Z,8.20
2023-04-01T07:39:23.692Z,8.20
2023-04-01T07:41:59.500Z,8.20
2023-04-01T07:44:49.514Z,8.20
2023-04-01T07:47:24.053Z,8.20
2023-04-01T07:49:54.009Z,8.20
2023-04-01T07:52:20.971Z,8.20
2023-04-01T07:54:54.062Z,8.20
2023-04-01T07:57:32.223Z,8.20
2023-04-01T08:00:13.926Z,8.30
2023-04-01T08:02:43.939Z,8.30
2023-04-01T08:05:13.719Z,8.30
2023-04-01T08:08:15.628Z,8.20
2023-04-01T08:11:15.674Z,8.20
2023-04-01T08:14:09.720Z,8.20
2023-04-01T08:17:01.974Z,8.30
2023-04-01T08:19:53.148Z,8.30
2023-04-01T08:22:43.049Z,8.30
2023-04-01T08:25:19.129Z,8.20
2023-04-01T08:27:52.396Z,8.30
2023-04-01T08:30:39.287Z,8.30
2023-04-01T08:33:25.994Z,8.30
2023-04-01T08:36:20.296Z,8.20
2023-04-01T08:39:03.289Z,8.20
2023-04-01T08:41:48.111Z,8.20
2023-04-01T08:44:46.931Z,8.30
2023-04-01T08:47:47.578Z,8.30
2023-04-01T08:50:38.311Z,8.30
2023-04-01T08:53:18.144Z,8.30
2023-04-01T08:56:30.090Z,8.30
2023-04-01T08:59:06.082Z,8.30
2023-04-01T09:01:56.697Z,8.30
2023-04-01T09:04:45.517Z,8.30
2023-04-01T09:07:41.767Z,8.30
2023-04-01T09:10:39.915Z,8.30
2023-04-01T09:13:38.433Z,8.40
2023-04-01T09:16:11.644Z,8.40
2023-04-01T09:18:44.344Z,8.40
2023-04-01T09:21:45.031Z,8.40
2023-04-01T09:24:42.423Z,8.40
2023-04-01T09:27:12.620Z,8.40
2023-04-01T09:29:51.789Z,8.40
2023-04-01T09:32:24.918Z,8.40
2023-04-01T09:35:29.601Z,8.40
2023-04-01T09:38:29.731Z,8.40
2023-04-01T09:41:27.891Z,8.50
2023-04-01T09:44:22.376Z,8.50
2023-04-01T09:47:23.542Z,8.40
2023-04-01T09:50:18.901Z,8.40
2023-04-01T09:53:01.703Z,8.40
2023-04-01T09:56:10.930Z,8.40
2023-04-01T09:59:03.078Z,8.40
2023-04-01T10:01:45.377Z,8.40
2023-04-01T10:04:30.966Z,8.40
2023-04-01T10:07:07.192Z,8.40
2023-04-01T10:09:55.610Z,8.40
2023-04-01T10:12:31.284Z,8.40
2023-04-01T10:15:13.418Z,8.40
2023-04-01T10:17:55.900Z,8.50
2023-04-01T10:20:58.406Z,8.50
2023-04-01T10:23:34.239Z,8.50
2023-04-01T10:26:10.154Z,8.50
2023-04-01T10:29:05.877Z,8.50
2023-04-01T10:31:55.989Z,8.60
2023-04-01T10:35:11.281Z,8.60
2023-04-01T10:38:11.975Z,8.60
2023-04-01T10:40:51.172Z,8.70
2023-04-01T10:43:29.827Z,8.70
2023-04-01T10:46:14.923Z,8.80
2023-04-01T10:48:55.263Z,8.70
2023-04-01T10:51:47.571Z,8.70
2023-04-01T10:54:44.219Z,8.80
2023-04-01T10:57:23.420Z,8.80
2023-04-01T11:00:27.795Z,8.80
2023-04-01T11:03:25.586Z,8.70
2023-04-01T11:05:52.719Z,8.70
2023-04-01T11:08:25.134Z,8.70
2023-04-01T11:11:34.998Z,8.70
2023-04-01T11:14:29.599Z,8.80
2023-04-01T11:17:18.322Z,8.70
2023-04-01T11:19:51.530Z,8.70
2023-04-01T11:22:36.368Z,8.70
2023-04-01T11:25:11.836Z,8.70
2023-04-01T11:28:02.884Z,8.90
2023-04-01T11:31:04.793Z,8.90
2023-04-01T11:33:42.175Z,8.90
2023-04-01T11:36:20.888Z,9.00
2023-04-01T11:38:56.705Z,9.00
2023-04-01T11:41:50.539Z,9.10
2023-04-01T11:44:22.586Z,9.10
2023-04-01T11:47:15.211Z,9.20
2023-04-01T11:50:06.510Z,9.20
2023-04-01T11:52:42.717Z,9.20
2023-04-01T11:55:18.201Z,9.30
2023-04-01T11:58:07.584Z,9.30
2023-04-01T12:00:53.470Z,9.30
2023-04-01T12:03:39.250Z,9.30
2023-04-01T12:06:39.979Z,9.30
2023-04-01T12:09:34.112Z,9.30
2023-04-01T12:12:33.656Z,9.30
2023-04-01T12:15:12.917Z,9.40
2023-04-01T12:18:00.903Z,9.50
2023-04-01T12:20:51.290Z,9.60
2023-04-01T12:23:43.799Z,9.60
2023-04-01T12:26:49.881Z,9.60
2023-04-01T12:29:36.525Z,9.50
2023-04-01T12:32:26.165Z,9.40
2023-04-01T12:35:05.930Z,9.50
2023-04-01T12:37:35.799Z,9.60
2023-04-01T12:40:31.877Z,9.70
2023-04-01T12:43:37.414Z,9.90
2023-04-01T12:46:16.306Z,9.90
2023-04-01T12:49:08.249Z,10.00
2023-04-01T12:51:41.967Z,9.90
2023-04-01T12:54:39.026Z,9.90
2023-04-01T12:57:23.862Z,9.80
2023-04-01T12:59:52.713Z,9.70
2023-04-01T13:02:47.574Z,9.60
2023-04-01T13:05:14.440Z,9.60
2023-04-01T13:08:10.035Z,9.60
2023-04-01T13:10:45.817Z,9.60
2023-04-01T13:13:58.034Z,9.60
2023-04-01T13:16:30.105Z,9.70
2023-04-01T13:19:21.699Z,9.70
2023-04-01T13:22:13.874Z,9.70
2023-04-01T13:25:01.803Z,9.70
2023-04-01T13:27:47.298Z,9.70
2023-04-01T13:30:20.088Z,9.70
2023-04-01T13:32:56.977Z,9.70
2023-04-01T13:35:36.445Z,9.70
2023-04-01T13:38:06.346Z,9.70
2023-04-01T13:41:08.291Z,9.70
2023-04-01T13:43:47.143Z,9.60
2023-04-01T13:47:06.750Z,9.70
2023-04-01T13:49:42.186Z,9.80
2023-04-01T13:52:43.209Z,9.90
2023-04-01T13:56:01.068Z,9.90
2023-04-01T13:58:49.355Z,10.00
2023-04-01T14:01:45.563Z,9.90
2023-04-01T14:04:49.935Z,9.90
2023-04-01T14:07:40.893Z,9.90
2023-04-01T14:26:17.221Z,9.80
2023-04-01T14:29:13.718Z,9.70
2023-04-01T14:32:11.423Z,9.60
2023-04-01T14:34:47.563Z,9.60
2023-04-01T14:37:32.114Z,9.70
2023-04-01T14:40:04.974Z,9.70
2023-04-01T14:43:00.735Z,9.60
2023-04-01T14:45:27.729Z,9.60
2023-04-01T14:47:57.383Z,9.60
2023-04-01T14:50:28.268Z,9.60
2023-04-01T14:53:01.535Z,9.60
2023-04-01T14:55:34.540Z,9.60
2023-04-01T14:58:14.307Z,9.60
2023-04-01T15:00:43.879Z,9.50
2023-04-01T15:03:39.164Z,9.50
2023-04-01T15:06:31.923Z,9.40
2023-04-01T15:09:50.033Z,9.30
2023-04-01T15:12:35.587Z,9.30
2023-04-01T15:15:11.780Z,9.30
2023-04-01T15:17:59.619Z,9.20
2023-04-01T15:20:45.070Z,9.30
2023-04-01T15:23:55.784Z,9.20
2023-04-01T15:26:34.792Z,9.20
2023-04-01T15:29:20.655Z,9.20
2023-04-01T15:32:08.663Z,9.30
2023-04-01T15:35:09.773Z,9.20
2023-04-01T15:38:09.692Z,9.20
2023-04-01T15:40:55.862Z,9.20
2023-04-01T15:43:44.927Z,9.20
2023-04-01T15:46:39.390Z,9.20
2023-04-01T15:49:45.643Z,9.20
2023-04-01T15:52:25.648Z,9.20
2023-04-01T15:55:06.841Z,9.20
2023-04-01T15:57:53.453Z,9.10
2023-04-01T16:00:43.026Z,9.10
2023-04-01T16:03:20.315Z,9.10
2023-04-01T16:06:23.345Z,9.10
2023-04-01T16:08:56.704Z,9.10
2023-04-01T16:11:42.454Z,9.10
2023-04-01T16:14:24.662Z,9.10
2023-04-01T16:17:13.315Z,9.10
2023-04-01T16:20:01.216Z,9.10
2023-04-01T16:22:38.586Z,9.10
2023-04-01T16:25:33.701Z,9.10
2023-04-01T16:28:25.892Z,9.10
2023-04-01T16:30:59.048Z,9.10
2023-04-01T16:33:45.002Z,9.00
2023-04-01T16:36:37.351Z,9.00
2023-04-01T16:39:42.105Z,9.00
2023-04-01T16:42:41.612Z,9.00
2023-04-01T16:45:08.602Z,9.00
2023-04-01T16:48:02.570Z,9.00
2023-04-01T16:50:41.033Z,9.00
2023-04-01T16:53:20.830Z,9.00
2023-04-01T16:55:54.080Z,8.90
2023-04-01T16:58:34.512Z,8.90
2023-04-01T17:01:13.564Z,8.90
2023-04-01T17:03:49.605Z,8.90
2023-04-01T17:06:41.535Z,8.80
2023-04-01T17:09:27.406Z,8.80
2023-04-01T17:12:18.415Z,8.80
2023-04-01T17:15:12.667Z,8.70
2023-04-01T17:18:21.196Z,8.70
2023-04-01T17:20:57.853Z,8.60
2023-04-01T17:23:30.732Z,8.70
2023-04-01T17:26:37.833Z,8.60
2023-04-01T17:30:00.137Z,8.60
2023-04-01T17:33:00.896Z,8.60
2023-04-01T17:35:40.577Z,8.60
2023-04-01T17:38:10.764Z,8.60
2023-04-01T17:41:05.188Z,8.50
2023-04-01T17:43:41.554Z,8.50
2023-04-01T17:46:42.534Z,8.50
2023-04-01T17:49:15.480Z,8.50
2023-04-01T17:51:59.389Z,8.50
2023-04-01T17:54:45.771Z,8.50
2023-04-01T17:57:30.818Z,8.40
2023-04-01T18:00:19.497Z,8.40
2023-04-01T18:03:16.711Z,8.40
2023-04-01T18:06:14.835Z,8.50
2023-04-01T18:08:57.127Z,8.40
2023-04-01T18:11:40.501Z,8.40
2023-04-01T18:14:44.674Z,8.40
2023-04-01T18:17:19.740Z,8.40
2023-04-01T18:20:35.352Z,8.40
2023-04-01T18:23:05.663Z,8.30
2023-04-01T18:25:47.840Z,8.30
2023-04-01T18:28:23.884Z,8.30
2023-04-01T18:30:59.275Z,8.30
2023-04-01T18:34:00.876Z,8.20
2023-04-01T18:36:49.033Z,8.20
2023-04-01T18:39:38.308Z,8.20
2023-04-01T18:42:22.056Z,8.20
2023-04-01T18:44:55.454Z,8.20
2023-04-01T18:47:27.221Z,8.20
2023-04-01T18:50:13.142Z,8.10
2023-04-01T18:52:45.147Z,8.10
2023-04-01T18:55:29.742Z,8.10
2023-04-01T18:58:06.855Z,8.00
2023-04-01T19:00:42.136Z,8.00
2023-04-01T19:03:31.728Z,8.00
2023-04-01T19:06:02.925Z,8.00
2023-04-01T19:08:40.467Z,8.00
2023-04-01T19:11:11.373Z,8.00
2023-04-01T19:13:44.989Z,8.00
2023-04-01T19:16:33.455Z,8.00
2023-04-01T19:19:21.649Z,8.00
2023-04-01T19:22:32.747Z,8.00
2023-04-01T19:25:32.466Z,8.00
2023-04-01T19:28:30.145Z,8.00
2023-04-01T19:31:04.292Z,8.00
2023-04-01T19:33:49.841Z,8.00
2023-04-01T19:36:37.525Z,7.90
2023-04-01T19:39:07.690Z,7.90
2023-04-01T19:41:43.756Z,7.90
2023-04-01T19:44:37.726Z,7.90
2023-04-01T19:47:13.746Z,7.90
2023-04-01T19:50:36.387Z,7.90
2023-04-01T19:53:35.682Z,7.90
2023-04-01T19:56:32.603Z,7.80
2023-04-01T19:59:14.902Z,7.90
2023-04-01T20:01:59.951Z,7.80
2023-04-01T20:04:41.750Z,7.90
2023-04-01T20:07:12.633Z,7.80
2023-04-01T20:09:42.854Z,7.80
2023-04-01T20:12:37.552Z,7.80
2023-04-01T20:15:21.601Z,7.80
2023-04-01T20:17:52.294Z,7.80
2023-04-01T20:20:26.932Z,7.80
2023-04-01T20:23:11.570Z,7.80
2023-04-01T20:25:48.824Z,7.80
2023-04-01T20:28:43.098Z,7.80
2023-04-01T20:31:13.099Z,7.80
2023-04-01T20:34:02.837Z,7.70
2023-04-01T20:36:57.742Z,7.70
2023-04-01T20:39:33.223Z,7.70
2023-04-01T20:42:27.919Z,7.70
2023-04-01T20:45:00.753Z,7.70
2023-04-01T20:48:10.443Z,7.70
2023-04-01T20:50:52.038Z,7.70
2023-04-01T20:53:42.731Z,7.60
2023-04-01T20:56:28.253Z,7.60
2023-04-01T20:59:16.853Z,7.70
2023-04-01T21:02:05.860Z,7.60
2023-04-01T21:04:42.950Z,7.60
2023-04-01T21:07:22.951Z,7.60
2023-04-01T21:10:05.123Z,7.60
2023-04-01T21:12:41.284Z,7.60
2023-04-01T21:15:28.673Z,7.60
2023-04-01T21:18:16.284Z,7.60
2023-04-01T21:21:02.249Z,7.70
2023-04-01T21:23:47.394Z,7.70
2023-04-01T21:26:26.452Z,7.70
2023-04-01T21:29:01.218Z,7.70
2023-04-01T21:31:47.244Z,7.70
2023-04-01T21:34:35.159Z,7.70
2023-04-01T21:37:34.232Z,7.70
2023-04-01T21:40:19.837Z,7.70
2023-04-01T21:43:05.403Z,7.70
2023-04-01T21:45:56.871Z,7.70
2023-04-01T21:49:01.603Z,7.70
2023-04-01T21:51:46.931Z,7.70
2023-04-01T21:54:22.779Z,7.70
2023-04-01T21:57:27.953Z,7.70
2023-04-01T21:59:54.960Z,7.70
2023-04-01T22:02:46.915Z,7.70
2023-04-01T22:05:14.047Z,7.70
2023-04-01T22:08:08.515Z,7.70
2023-04-01T22:10:54.085Z,7.70
2023-04-01T22:13:27.750Z,7.70
2023-04-01T22:16:10.650Z,7.70
2023-04-01T22:19:14.346Z,7.70
2023-04-01T22:22:03.025Z,7.70
2023-04-01T22:24:47.968Z,7.70
2023-04-01T22:27:46.621Z,7.70
2023-04-01T22:30:25.734Z,7.70
2023-04-01T22:32:59.536Z,7.70
2023-04-01T22:35:42.289Z,7.70
2023-04-01T22:38:22.067Z,7.70
2023-04-01T22:40:55.942Z,7.70
2023-04-01T22:43:42.886Z,7.70
2023-04-01T22:46:38.321Z,7.70
2023-04-01T22:49:17.632Z,7.70
2023-04-01T22:51:56.623Z,7.70
2023-04-01T22:54:32.750Z,7.70
2023-04-01T22:57:32.827Z,7.70
2023-04-01T23:00:13.399Z,7.60
2023-04-01T23:03:19.969Z,7.70
2023-04-01T23:06:02.554Z,7.70
2023-04-01T23:08:48.463Z,7.70
2023-04-01T23:11:47.510Z,7.70
2023-04-01T23:14:27.855Z,7.60
2023-04-01T23:17:12.317Z,7.60
2023-04-01T23:19:53.368Z,7.60
2023-04-01T23:22:29.124Z,7.60
2023-04-01T23:25:04.468Z,7.60
2023-04-01T23:27:44.849Z,7.60
2023-04-01T23:30:39.706Z,7.60
2023-04-01T23:33:25.557Z,7.60
2023-04-01T23:36:11.739Z,7.60
2023-04-01T23:38:44.484Z,7.60
2023-04-01T23:41:21.804Z,7.60
2023-04-01T23:43:57.659Z,7.60
2023-04-01T23:46:26.468Z,7.60
2023-04-01T23:48:54.664Z,7.60
2023-04-01T23:51:28.380Z,7.60
2023-04-01T23:54:32.933Z,7.60
2023-04-01T23:57:04.236Z,7.60
2023-04-01T23:59:36.057Z,7.60
